Time;durP1;ratioP1;P1;durP2;ratioP2;P2;SDS_P1;SDS_P2;PMS_P1;PMS_P2;Temp;Humidity;BMP_temperature;BMP_pressure;BME280_temperature;BME280_humidity;BME280_pressure;Samples;Min_cycle;Max_cycle;Signal;HPM_P1;HPM_P2
2021/11/08 00:01:58;;;;;;;;;;;;;;;11.42;94.07;99935.47;4972615;28;819;-60
2021/11/08 00:04:24;;;;;;;;;;;;;;;11.41;94.52;99934.69;4955115;28;1258;-60
2021/11/08 00:06:51;;;;;;;;;;;;;;;11.46;94.64;99933.47;4972781;28;818;-59
2021/11/08 00:09:18;;;;;;;;;;;;;;;11.50;94.18;99936.19;4972603;28;1886;-60
2021/11/08 00:11:45;;;;;;;;;;;;;;;11.51;94.57;99926.72;4972481;28;871;-60
2021/11/08 00:14:15;;;;;;;;;;;;;;;11.53;94.56;99924.31;4972422;28;835;-60
2021/11/08 00:16:58;;;;;;;;;;;;;;;11.56;94.67;99921.50;4972346;28;870;-59
2021/11/08 00:19:46;;;;;;;;;;;;;;;11.58;94.31;99916.34;4972410;28;1215;-60
2021/11/08 00:22:13;;;;;;;;;;;;;;;11.61;94.38;99917.56;4955015;28;1284;-60
2021/11/08 00:24:42;;;;;;;;;;;;;;;11.63;94.46;99915.16;4972517;28;910;-60
2021/11/08 00:27:08;;;;;;;;;;;;;;;11.61;94.48;99918.34;4972283;28;836;-60
2021/11/08 00:29:37;;;;;;;;;;;;;;;11.52;93.73;99918.00;4972509;28;1972;-60
2021/11/08 00:32:05;;;;;;;;;;;;;;;11.39;93.89;99919.66;4972224;28;835;-60
2021/11/08 00:34:32;;;;;;;;;;;;;;;11.19;93.60;99905.56;4954863;28;864;-60
2021/11/08 00:36:58;;;;;;;;;;;;;;;10.95;93.52;99902.53;4972264;28;875;-60
2021/11/08 00:39:26;;;;;;;;;;;;;;;10.76;93.67;99903.78;4954836;28;1272;-60
2021/11/08 00:41:53;;;;;;;;;;;;;;;10.70;94.45;99910.91;4954800;28;919;-60
2021/11/08 00:44:20;;;;;;;;;;;;;;;10.70;95.03;99919.22;4972264;28;887;-59
2021/11/08 00:46:47;;;;;;;;;;;;;;;10.79;95.84;99921.53;4972183;28;834;-60
2021/11/08 00:49:14;;;;;;;;;;;;;;;10.95;95.91;99924.66;4972473;28;1943;-59
2021/11/08 00:51:44;;;;;;;;;;;;;;;11.04;95.73;99925.00;4975703;28;959;-60
2021/11/08 00:54:12;;;;;;;;;;;;;;;11.14;95.52;99933.66;4975571;28;939;-60
2021/11/08 00:56:40;;;;;;;;;;;;;;;11.18;95.46;99915.84;4975646;28;827;-60
2021/11/08 00:59:07;;;;;;;;;;;;;;;11.18;95.43;99915.84;4975394;28;820;-60
2021/11/08 01:01:34;;;;;;;;;;;;;;;11.18;95.51;99910.31;4975480;28;1081;-59
2021/11/08 01:04:01;;;;;;;;;;;;;;;11.08;95.02;99908.38;4975328;28;840;-60
2021/11/08 01:06:28;;;;;;;;;;;;;;;10.99;94.95;99906.06;4975549;28;959;-59
2021/11/08 01:08:54;;;;;;;;;;;;;;;10.93;95.37;99882.78;4975329;28;819;-60
2021/11/08 01:11:21;;;;;;;;;;;;;;;10.87;95.56;99878.06;4975205;28;1945;-60
2021/11/08 01:13:47;;;;;;;;;;;;;;;10.77;95.35;99874.94;4975266;28;812;-59
2021/11/08 01:16:14;;;;;;;;;;;;;;;10.71;95.36;99870.22;4975130;28;965;-60
2021/11/08 01:18:40;;;;;;;;;;;;;;;10.70;95.62;99891.56;4975298;28;1353;-59
2021/11/08 01:21:09;;;;;;;;;;;;;;;10.79;95.90;99883.63;4957817;28;1471;-59
2021/11/08 01:23:35;;;;;;;;;;;;;;;10.93;96.31;99899.38;4975048;28;831;-60
2021/11/08 01:26:06;;;;;;;;;;;;;;;11.04;96.15;99891.81;4975083;28;886;-60
2021/11/08 01:28:37;;;;;;;;;;;;;;;11.11;95.68;99892.94;4975337;28;816;-59
2021/11/08 01:31:08;;;;;;;;;;;;;;;11.15;95.94;99880.66;4975017;28;1906;-60
2021/11/08 01:33:36;;;;;;;;;;;;;;;11.16;95.74;99873.16;4974889;28;812;-60
2021/11/08 01:38:38;;;;;;;;;;;;;;;11.11;95.43;99863.31;4974793;28;768;-60
2021/11/08 01:41:05;;;;;;;;;;;;;;;11.13;96.05;99868.44;4974760;28;816;-59
2021/11/08 01:43:33;;;;;;;;;;;;;;;11.16;95.52;99862.91;4974753;28;811;-60
2021/11/08 01:46:00;;;;;;;;;;;;;;;11.19;95.59;99858.53;4974598;28;859;-59
2021/11/08 01:48:28;;;;;;;;;;;;;;;11.13;95.21;99855.38;4974659;28;862;-60
2021/11/08 01:50:54;;;;;;;;;;;;;;;11.05;95.43;99842.78;4974458;28;1886;-60
2021/11/08 01:53:23;;;;;;;;;;;;;;;10.94;94.96;99848.38;4974532;28;973;-60
2021/11/08 01:55:50;;;;;;;;;;;;;;;10.80;94.95;99842.97;4974373;28;910;-60
2021/11/08 01:58:20;;;;;;;;;;;;;;;10.76;95.70;99848.50;4974401;28;914;-59
2021/11/08 02:00:47;;;;;;;;;;;;;;;10.78;95.83;99846.13;4974775;28;863;-60
2021/11/08 02:03:16;;;;;;;;;;;;;;;10.83;96.14;99840.16;4974861;28;894;-60
2021/11/08 02:05:43;;;;;;;;;;;;;;;10.91;96.30;99838.16;4974377;28;890;-60
2021/11/08 02:08:10;;;;;;;;;;;;;;;10.93;95.73;99835.78;4974332;28;780;-59
2021/11/08 02:10:37;;;;;;;;;;;;;;;10.98;96.14;99835.34;4974227;28;1894;-59
2021/11/08 02:13:04;;;;;;;;;;;;;;;10.89;95.58;99835.00;4974045;28;967;-59
2021/11/08 02:15:31;;;;;;;;;;;;;;;10.82;95.87;99837.81;4974233;28;903;-60
2021/11/08 02:17:58;;;;;;;;;;;;;;;10.76;96.01;99831.13;4974288;28;909;-60
2021/11/08 02:20:26;;;;;;;;;;;;;;;10.76;95.70;99828.38;4973882;28;1230;-60
2021/11/08 02:22:54;;;;;;;;;;;;;;;10.78;95.94;99826.75;4973929;28;883;-59
2021/11/08 02:25:21;;;;;;;;;;;;;;;10.83;95.62;99829.09;4973939;28;902;-60
2021/11/08 02:27:48;;;;;;;;;;;;;;;10.87;95.81;99834.63;4973760;28;844;-59
2021/11/08 02:30:17;;;;;;;;;;;;;;;10.90;95.83;99827.47;4973759;28;1942;-60
2021/11/08 02:32:43;;;;;;;;;;;;;;;10.93;95.71;99827.47;4973752;28;932;-60
2021/11/08 02:35:12;;;;;;;;;;;;;;;10.96;95.54;99832.19;4973737;28;891;-60
2021/11/08 02:37:39;;;;;;;;;;;;;;;10.96;95.53;99832.19;4973734;28;828;-60
2021/11/08 02:40:06;;;;;;;;;;;;;;;10.92;95.05;99827.88;4973705;28;820;-60
2021/11/08 02:42:33;;;;;;;;;;;;;;;10.88;95.26;99827.09;4973563;28;819;-60
2021/11/08 02:45:03;;;;;;;;;;;;;;;10.86;95.54;99835.00;4973591;28;807;-60
2021/11/08 02:47:29;;;;;;;;;;;;;;;10.86;95.54;99833.06;4973553;28;855;-60
2021/11/08 02:49:58;;;;;;;;;;;;;;;10.88;95.71;99832.63;4973420;28;1895;-60
2021/11/08 02:52:26;;;;;;;;;;;;;;;10.90;95.67;99824.72;4973306;28;978;-60
2021/11/08 02:54:53;;;;;;;;;;;;;;;10.89;95.58;99825.94;4973480;28;851;-60
2021/11/08 02:57:23;;;;;;;;;;;;;;;10.88;95.21;99816.03;4973212;28;828;-59
2021/11/08 02:59:51;;;;;;;;;;;;;;;10.86;95.29;99818.41;4973325;28;922;-60
2021/11/08 03:02:19;;;;;;;;;;;;;;;10.79;95.38;99810.97;4973336;28;890;-60
2021/11/08 03:04:50;;;;;;;;;;;;;;;10.71;95.46;99807.47;4973192;28;883;-60
2021/11/08 03:07:17;;;;;;;;;;;;;;;10.69;95.18;99806.25;4973202;28;899;-59
2021/11/08 03:09:46;;;;;;;;;;;;;;;10.71;95.64;99804.69;4973304;28;1890;-60
2021/11/08 03:12:18;;;;;;;;;;;;;;;10.69;95.54;99803.50;4972739;28;892;-59
2021/11/08 03:15:10;;;;;;;;;;;;;;;10.69;95.57;99789.69;4973080;28;859;-60
2021/11/08 03:17:39;;;;;;;;;;;;;;;10.71;95.32;99795.59;4972453;28;1223;-60
2021/11/08 03:20:09;;;;;;;;;;;;;;;10.72;95.59;99784.16;4973008;28;1222;-60
2021/11/08 03:22:35;;;;;;;;;;;;;;;10.73;95.62;99795.97;4973031;28;819;-59
2021/11/08 03:27:54;;;;;;;;;;;;;;;10.79;95.59;99800.69;4972846;28;665;-60
2021/11/08 03:30:24;;;;;;;;;;;;;;;10.86;95.56;99805.41;4973240;28;1968;-60
2021/11/08 03:32:52;;;;;;;;;;;;;;;10.92;95.21;99802.97;4973128;28;819;-59
2021/11/08 03:35:21;;;;;;;;;;;;;;;10.97;95.27;99799.81;4955498;28;1301;-59
2021/11/08 03:37:49;;;;;;;;;;;;;;;10.99;94.94;99798.19;4972840;28;823;-60
2021/11/08 03:40:32;;;;;;;;;;;;;;;10.98;94.77;99779.25;4972798;28;828;-60
2021/11/08 03:42:58;;;;;;;;;;;;;;;10.99;95.07;99789.91;4973026;28;850;-59
2021/11/08 03:45:25;;;;;;;;;;;;;;;10.99;94.67;99809.25;4973244;28;802;-60
2021/11/08 03:47:53;;;;;;;;;;;;;;;10.96;94.63;99814.81;4973268;28;843;-60
2021/11/08 03:50:20;;;;;;;;;;;;;;;10.91;94.71;99818.78;4955408;28;1875;-59
2021/11/08 03:52:46;;;;;;;;;;;;;;;10.85;94.94;99823.16;4972752;28;823;-59
2021/11/08 03:55:13;;;;;;;;;;;;;;;10.79;95.24;99811.75;4972749;28;840;-60
2021/11/08 03:57:40;;;;;;;;;;;;;;;10.75;94.91;99810.19;4972885;28;835;-60
2021/11/08 04:00:07;;;;;;;;;;;;;;;10.74;95.11;99809.41;4973387;28;764;-59
2021/11/08 04:02:34;;;;;;;;;;;;;;;10.71;95.00;99801.94;4972828;28;851;-60
2021/11/08 04:05:01;;;;;;;;;;;;;;;10.66;95.31;99796.03;4972905;28;835;-59
2021/11/08 04:07:27;;;;;;;;;;;;;;;10.59;94.96;99791.34;4972801;28;903;-60
2021/11/08 04:09:55;;;;;;;;;;;;;;;10.56;95.55;99795.69;4973154;28;1937;-59
2021/11/08 04:12:23;;;;;;;;;;;;;;;10.58;95.74;99793.31;4972783;28;823;-60
2021/11/08 04:14:50;;;;;;;;;;;;;;;10.62;95.58;99799.63;4973286;28;788;-60
2021/11/08 04:17:17;;;;;;;;;;;;;;;10.58;95.24;99806.31;4972575;28;968;-60
2021/11/08 04:19:44;;;;;;;;;;;;;;;10.55;95.48;99809.91;4972531;28;1407;-59
2021/11/08 04:22:10;;;;;;;;;;;;;;;10.53;95.62;99801.22;4972650;28;851;-59
2021/11/08 04:24:37;;;;;;;;;;;;;;;10.51;95.49;99806.38;4973391;28;902;-59
2021/11/08 04:27:03;;;;;;;;;;;;;;;10.48;95.44;99809.94;4976284;28;777;-59
2021/11/08 04:29:30;;;;;;;;;;;;;;;10.45;95.28;99807.97;4959104;28;1973;-59
2021/11/08 04:31:57;;;;;;;;;;;;;;;10.42;95.46;99796.53;4976485;28;818;-60
2021/11/08 04:34:28;;;;;;;;;;;;;;;10.42;95.58;99804.81;4976273;28;820;-60
2021/11/08 04:42:55;;;;;;;;;;;;;;;10.44;95.62;99798.13;4975927;28;619;-59
2021/11/08 04:45:27;;;;;;;;;;;;;;;10.36;95.87;99795.38;4975027;28;1168;-59
2021/11/08 04:54:38;;;;;;;;;;;;;;;10.24;95.83;99790.25;4972501;28;1338;-59
2021/11/08 05:27:52;;;;;;;;;;;;;;;10.21;96.14;99815.94;4994935;28;633;-61
2021/11/08 05:31:48;;;;;;;;;;;;;;;10.29;96.25;99817.50;4994445;28;822;-61
2021/11/08 05:34:15;;;;;;;;;;;;;;;10.28;95.91;99817.88;4994523;28;795;-61
2021/11/08 05:36:42;;;;;;;;;;;;;;;10.33;96.07;99815.53;4993960;28;806;-61
2021/11/08 05:39:09;;;;;;;;;;;;;;;10.39;96.28;99813.94;4994284;28;862;-61
2021/11/08 05:41:37;;;;;;;;;;;;;;;10.40;96.31;99821.00;4994260;28;870;-61
2021/11/08 05:44:04;;;;;;;;;;;;;;;10.47;96.01;99830.47;4994304;28;799;-61
2021/11/08 05:49:33;;;;;;;;;;;;;;;10.39;95.99;99826.94;4994031;28;1890;-61
2021/11/08 05:52:00;;;;;;;;;;;;;;;10.42;96.02;99831.66;4994109;28;811;-61
2021/11/08 05:54:26;;;;;;;;;;;;;;;10.34;95.54;99819.84;4976421;28;1368;-61
2021/11/08 05:57:13;;;;;;;;;;;;;;;10.26;95.43;99821.03;4976565;28;1185;-60
2021/11/08 06:49:32;;;;;;;;;;;;;;;11.64;94.64;99848.28;4992960;28;1910;-61
2021/11/08 06:51:58;;;;;;;;;;;;;;;11.79;94.42;99840.66;4992949;28;882;-61
2021/11/08 06:54:26;;;;;;;;;;;;;;;11.88;93.81;99842.97;4992936;28;870;-61
2021/11/08 06:56:57;;;;;;;;;;;;;;;11.90;93.53;99848.09;4993114;28;865;-61
2021/11/08 06:59:25;;;;;;;;;;;;;;;11.91;93.43;99844.94;4992871;28;874;-62
2021/11/08 07:01:52;;;;;;;;;;;;;;;11.82;93.73;99848.16;4992799;28;865;-62
2021/11/08 07:04:19;;;;;;;;;;;;;;;11.80;93.91;99849.75;4992767;28;874;-62
2021/11/08 07:06:45;;;;;;;;;;;;;;;11.83;93.78;99844.16;4992773;28;815;-62
2021/11/08 07:09:13;;;;;;;;;;;;;;;11.83;94.06;99843.38;4991390;28;2071;-62
2021/11/08 07:11:40;;;;;;;;;;;;;;;11.93;93.71;99842.53;4992609;28;1977;-62
2021/11/08 07:14:07;;;;;;;;;;;;;;;11.91;93.27;99844.94;4992608;28;877;-62
2021/11/08 07:16:34;;;;;;;;;;;;;;;11.95;93.51;99844.88;4992519;28;810;-61
2021/11/08 07:19:01;;;;;;;;;;;;;;;12.04;93.50;99840.44;4992473;28;1223;-61
2021/11/08 07:21:27;;;;;;;;;;;;;;;12.15;93.11;99842.31;4992713;28;839;-61
2021/11/08 07:23:54;;;;;;;;;;;;;;;12.14;92.76;99838.75;4992522;28;818;-61
2021/11/08 07:26:21;;;;;;;;;;;;;;;12.34;92.93;99836.16;4992454;28;807;-61
2021/11/08 07:28:47;;;;;;;;;;;;;;;12.49;92.56;99836.00;4992427;28;811;-61
2021/11/08 07:31:14;;;;;;;;;;;;;;;12.66;92.32;99826.66;4992284;28;1915;-61
2021/11/08 07:33:40;;;;;;;;;;;;;;;12.79;92.01;99829.66;4992346;28;858;-61
2021/11/08 07:36:07;;;;;;;;;;;;;;;12.94;91.61;99831.03;4992525;28;871;-61
2021/11/08 07:38:35;;;;;;;;;;;;;;;12.97;91.18;99833.00;4992264;28;818;-61
2021/11/08 07:41:03;;;;;;;;;;;;;;;12.93;90.94;99825.91;4992283;28;897;-61
2021/11/08 07:43:29;;;;;;;;;;;;;;;12.92;90.86;99821.56;4992334;28;842;-61
2021/11/08 07:45:56;;;;;;;;;;;;;;;12.95;90.99;99824.28;4992096;28;977;-61
2021/11/08 07:48:22;;;;;;;;;;;;;;;13.00;91.20;99828.59;4992363;28;838;-61
2021/11/08 07:50:49;;;;;;;;;;;;;;;13.13;91.06;99826.81;4992151;28;1954;-60
2021/11/08 07:53:19;;;;;;;;;;;;;;;13.06;90.34;99819.38;4992087;28;871;-60
2021/11/08 07:55:45;;;;;;;;;;;;;;;13.08;90.40;99832.84;4992172;28;823;-60
2021/11/08 07:58:12;;;;;;;;;;;;;;;13.23;89.91;99833.41;4992473;28;823;-60
2021/11/08 08:00:40;;;;;;;;;;;;;;;13.36;89.25;99831.63;4996101;28;842;-60
2021/11/08 08:03:07;;;;;;;;;;;;;;;13.26;89.24;99841.66;4996334;28;818;-60
2021/11/08 08:05:34;;;;;;;;;;;;;;;13.23;89.20;99830.63;4996098;28;854;-60
2021/11/08 08:08:01;;;;;;;;;;;;;;;13.30;88.85;99838.09;4995930;28;794;-60
2021/11/08 08:10:27;;;;;;;;;;;;;;;13.53;88.68;99834.53;4995926;28;1968;-59
2021/11/08 08:12:54;;;;;;;;;;;;;;;13.53;87.58;99840.88;4995969;28;810;-59
2021/11/08 08:15:20;;;;;;;;;;;;;;;13.53;88.21;99845.63;4995730;28;831;-59
2021/11/08 08:17:47;;;;;;;;;;;;;;;13.61;87.77;99852.66;4994622;28;1221;-59
2021/11/08 08:20:18;;;;;;;;;;;;;;;13.80;87.65;99851.91;4995646;28;1359;-59
2021/11/08 08:22:45;;;;;;;;;;;;;;;13.87;86.95;99851.81;4996053;28;806;-59
2021/11/08 08:25:12;;;;;;;;;;;;;;;13.84;87.22;99843.53;4996076;28;783;-59
2021/11/08 08:27:39;;;;;;;;;;;;;;;13.98;86.83;99843.28;4994654;28;894;-59
2021/11/08 08:30:06;;;;;;;;;;;;;;;13.84;86.60;99835.97;4995771;28;1975;-59
2021/11/08 08:32:32;;;;;;;;;;;;;;;13.78;86.53;99834.09;4996121;28;740;-59
2021/11/08 08:34:59;;;;;;;;;;;;;;;13.73;86.87;99835.38;4995962;28;783;-59
2021/11/08 08:37:28;;;;;;;;;;;;;;;14.04;86.34;99827.69;4995563;28;851;-60
2021/11/08 08:39:55;;;;;;;;;;;;;;;14.34;85.57;99825.13;4995650;28;795;-60
2021/11/08 08:42:22;;;;;;;;;;;;;;;14.61;84.67;99819.44;4995538;28;835;-60
2021/11/08 08:44:49;;;;;;;;;;;;;;;14.78;83.81;99815.50;4995869;28;811;-60
2021/11/08 08:47:16;;;;;;;;;;;;;;;14.65;83.85;99825.72;4995463;28;814;-60
2021/11/08 08:49:42;;;;;;;;;;;;;;;14.49;83.39;99818.09;4995423;28;1949;-61
2021/11/08 08:52:09;;;;;;;;;;;;;;;14.36;83.87;99809.59;4995484;28;803;-61
2021/11/08 08:54:36;;;;;;;;;;;;;;;14.81;83.69;99811.88;4995459;28;830;-60
2021/11/08 08:57:03;;;;;;;;;;;;;;;15.04;82.20;99802.59;4994041;28;1319;-61
2021/11/08 08:59:29;;;;;;;;;;;;;;;15.22;82.04;99795.81;4995333;28;964;-61
2021/11/08 09:01:57;;;;;;;;;;;;;;;15.11;81.06;99791.28;4995129;28;866;-61
2021/11/08 09:04:26;;;;;;;;;;;;;;;15.00;81.56;99782.41;4995300;28;876;-61
2021/11/08 09:06:52;;;;;;;;;;;;;;;15.47;81.14;99762.56;4995099;28;803;-61
2021/11/08 09:09:19;;;;;;;;;;;;;;;15.90;79.67;99771.84;4995154;28;796;-62
2021/11/08 09:11:44;;;;;;;;;;;;;;;16.20;78.58;99751.09;4994279;28;1894;-62
2021/11/08 09:14:11;;;;;;;;;;;;;;;16.31;78.63;99747.97;4994795;28;909;-62
2021/11/08 09:16:37;;;;;;;;;;;;;;;16.40;77.90;99750.13;4994830;28;799;-62
2021/11/08 09:19:04;;;;;;;;;;;;;;;16.32;77.80;99760.69;4993201;28;1383;-62
2021/11/08 09:21:32;;;;;;;;;;;;;;;16.21;77.95;99752.63;4994641;28;791;-62
2021/11/08 09:23:59;;;;;;;;;;;;;;;16.09;78.30;99762.53;4995261;28;818;-62
2021/11/08 09:26:27;;;;;;;;;;;;;;;16.19;78.43;99755.06;4993758;28;1177;-62
2021/11/08 09:28:53;;;;;;;;;;;;;;;16.31;77.87;99747.97;4995004;28;811;-62
2021/11/08 09:31:20;;;;;;;;;;;;;;;16.32;77.98;99743.94;4994770;28;1963;-62
2021/11/08 09:33:48;;;;;;;;;;;;;;;16.29;77.47;99736.47;4994590;28;1259;-63
2021/11/08 09:36:15;;;;;;;;;;;;;;;16.13;78.13;99731.78;4994731;28;815;-62
2021/11/08 09:38:50;;;;;;;;;;;;;;;16.41;77.61;99729.34;4994812;28;799;-63
2021/11/08 09:41:17;;;;;;;;;;;;;;;16.75;76.86;99720.34;4994331;28;806;-62
2021/11/08 09:43:44;;;;;;;;;;;;;;;16.72;76.36;99710.06;4994161;28;866;-63
2021/11/08 09:46:12;;;;;;;;;;;;;;;16.84;76.45;99709.31;4994243;28;783;-63
2021/11/08 09:48:39;;;;;;;;;;;;;;;16.99;75.67;99706.84;4994175;28;846;-63
2021/11/08 09:51:10;;;;;;;;;;;;;;;17.25;75.34;99707.56;4994096;28;1950;-63
2021/11/08 09:53:35;;;;;;;;;;;;;;;17.58;74.18;99709.25;4994137;28;866;-63
2021/11/08 09:56:03;;;;;;;;;;;;;;;17.60;73.90;99704.78;4994021;28;810;-63
2021/11/08 09:58:30;;;;;;;;;;;;;;;17.86;73.52;99708.28;4994038;28;846;-63
2021/11/08 10:00:59;;;;;;;;;;;;;;;18.19;71.88;99707.88;4993900;28;834;-63
2021/11/08 10:03:26;;;;;;;;;;;;;;;18.21;71.42;99701.81;4993962;28;814;-63
2021/11/08 10:05:54;;;;;;;;;;;;;;;18.19;71.20;99693.09;4993875;28;890;-63
2021/11/08 10:08:22;;;;;;;;;;;;;;;18.27;70.80;99695.16;4993835;28;870;-63
2021/11/08 10:10:50;;;;;;;;;;;;;;;18.42;70.50;99686.22;4993660;28;1871;-63
2021/11/08 10:13:19;;;;;;;;;;;;;;;18.62;70.52;99689.41;4993617;28;783;-63
2021/11/08 10:15:48;;;;;;;;;;;;;;;18.61;70.42;99687.88;4993845;28;772;-63
2021/11/08 10:18:16;;;;;;;;;;;;;;;18.90;69.85;99681.13;4993717;28;1203;-63
2021/11/08 10:20:48;;;;;;;;;;;;;;;19.06;69.64;99671.69;4994039;28;820;-63
2021/11/08 10:23:17;;;;;;;;;;;;;;;19.23;68.50;99672.97;4992484;28;867;-63
2021/11/08 10:25:45;;;;;;;;;;;;;;;19.24;68.34;99668.13;4993512;28;857;-63
2021/11/08 10:28:15;;;;;;;;;;;;;;;19.39;68.39;99669.06;4993419;28;799;-63
2021/11/08 10:30:45;;;;;;;;;;;;;;;19.82;67.55;99669.22;4993341;28;2053;-63
2021/11/08 10:33:19;;;;;;;;;;;;;;;20.08;66.37;99667.63;4993267;28;845;-63
2021/11/08 10:35:47;;;;;;;;;;;;;;;20.14;65.84;99660.13;4993540;28;807;-63
2021/11/08 10:38:18;;;;;;;;;;;;;;;20.27;65.85;99659.16;4993306;28;854;-63
2021/11/08 10:41:11;;;;;;;;;;;;;;;20.50;65.30;99646.44;4993106;28;849;-63
2021/11/08 10:43:39;;;;;;;;;;;;;;;20.59;64.19;99643.63;4990601;28;1057;-63
2021/11/08 10:46:11;;;;;;;;;;;;;;;20.73;64.13;99647.75;4993048;28;795;-63
2021/11/08 10:48:40;;;;;;;;;;;;;;;20.88;63.05;99645.78;4993374;28;842;-63
2021/11/08 10:51:08;;;;;;;;;;;;;;;20.92;62.89;99648.44;4992948;28;1894;-63
2021/11/08 10:53:44;;;;;;;;;;;;;;;21.06;62.49;99647.72;4993538;28;817;-63
2021/11/08 10:56:12;;;;;;;;;;;;;;;21.26;62.11;99651.94;4991714;28;1350;-63
2021/11/08 10:58:43;;;;;;;;;;;;;;;21.40;61.13;99651.97;4992811;28;854;-63
2021/11/08 11:01:19;;;;;;;;;;;;;;;21.48;60.17;99651.63;4992897;28;806;-63
2021/11/08 11:03:50;;;;;;;;;;;;;;;21.49;59.59;99648.34;4992920;28;823;-63
2021/11/08 11:06:17;;;;;;;;;;;;;;;21.55;59.43;99642.81;4991472;28;1411;-63
2021/11/08 11:08:51;;;;;;;;;;;;;;;21.80;58.65;99639.44;4992763;28;819;-63
2021/11/08 11:11:24;;;;;;;;;;;;;;;21.86;58.14;99636.75;4992715;28;1954;-63
2021/11/08 11:13:53;;;;;;;;;;;;;;;21.91;57.33;99633.25;4991326;28;1455;-63
2021/11/08 11:16:35;;;;;;;;;;;;;;;21.95;56.89;99633.06;4991393;28;1299;-63
2021/11/08 11:19:04;;;;;;;;;;;;;;;21.99;56.68;99633.63;4992504;28;1247;-63
2021/11/08 11:21:31;;;;;;;;;;;;;;;22.11;56.01;99634.63;4992528;28;886;-63
2021/11/08 11:24:05;;;;;;;;;;;;;;;22.18;55.49;99632.16;4992511;28;869;-64
2021/11/08 11:26:45;;;;;;;;;;;;;;;22.34;55.45;99624.50;4992479;28;819;-63
2021/11/08 11:29:12;;;;;;;;;;;;;;;22.59;54.70;99623.09;4992374;28;866;-63
2021/11/08 11:31:41;;;;;;;;;;;;;;;22.71;53.39;99618.41;4992359;28;1953;-63
2021/11/08 11:34:13;;;;;;;;;;;;;;;22.63;53.66;99615.19;4990704;28;941;-63
2021/11/08 11:36:40;;;;;;;;;;;;;;;22.82;52.69;99607.28;4992516;28;803;-63
2021/11/08 11:39:10;;;;;;;;;;;;;;;22.91;52.84;99612.75;4992700;28;855;-63
2021/11/08 11:41:39;;;;;;;;;;;;;;;23.15;52.35;99606.94;4992217;28;815;-63
2021/11/08 11:44:07;;;;;;;;;;;;;;;23.32;50.53;99609.97;4992346;28;914;-63
2021/11/08 11:46:38;;;;;;;;;;;;;;;23.52;50.30;99605.56;4992335;28;783;-63
2021/11/08 11:49:06;;;;;;;;;;;;;;;23.55;49.32;99602.50;4992223;28;803;-61
2021/11/08 11:51:34;;;;;;;;;;;;;;;23.52;49.28;99599.91;4992091;28;1949;-61
2021/11/08 11:54:01;;;;;;;;;;;;;;;23.61;49.22;99600.50;4992126;28;857;-61
2021/11/08 11:56:29;;;;;;;;;;;;;;;23.69;48.98;99595.22;4990866;28;1209;-61
2021/11/08 11:58:55;;;;;;;;;;;;;;;23.96;49.07;99599.59;4992095;28;815;-61
2021/11/08 12:01:26;;;;;;;;;;;;;;;24.22;48.87;99596.72;4990814;28;1485;-61
2021/11/08 12:03:53;;;;;;;;;;;;;;;24.08;48.59;99603.25;4992071;28;799;-61
2021/11/08 12:06:22;;;;;;;;;;;;;;;23.83;48.42;99596.38;4992315;28;839;-61
2021/11/08 12:08:51;;;;;;;;;;;;;;;23.56;48.26;99592.78;4991988;28;910;-61
2021/11/08 12:11:25;;;;;;;;;;;;;;;23.62;47.92;99585.16;4992070;28;1890;-61
2021/11/08 12:13:56;;;;;;;;;;;;;;;23.70;47.65;99596.75;4992002;28;799;-61
2021/11/08 12:16:28;;;;;;;;;;;;;;;23.41;47.86;99590.06;4991958;28;838;-61
2021/11/08 12:18:59;;;;;;;;;;;;;;;23.16;47.50;99588.75;4991959;28;1247;-61
2021/11/08 12:21:27;;;;;;;;;;;;;;;23.24;47.05;99580.66;4992260;28;823;-61
2021/11/08 12:23:56;;;;;;;;;;;;;;;23.64;46.98;99587.44;4992161;28;866;-62
2021/11/08 12:26:25;;;;;;;;;;;;;;;23.95;46.25;99588.78;4991946;28;862;-61
2021/11/08 12:28:52;;;;;;;;;;;;;;;24.34;45.70;99588.31;4991964;28;771;-61
2021/11/08 12:31:22;;;;;;;;;;;;;;;24.33;45.03;99587.53;4992035;28;1914;-61
2021/11/08 12:34:02;;;;;;;;;;;;;;;24.33;45.16;99581.13;4991812;28;854;-61
2021/11/08 12:36:29;;;;;;;;;;;;;;;24.31;45.38;99578.03;4991858;28;859;-61
2021/11/08 12:38:58;;;;;;;;;;;;;;;24.29;45.63;99587.00;4990469;28;1272;-61
2021/11/08 12:41:50;;;;;;;;;;;;;;;24.10;45.87;99586.59;4991751;28;859;-61
2021/11/08 12:44:21;;;;;;;;;;;;;;;24.09;45.84;99590.72;4991742;28;863;-61
2021/11/08 12:46:51;;;;;;;;;;;;;;;24.09;45.50;99582.25;4994474;28;894;-61
2021/11/08 12:49:22;;;;;;;;;;;;;;;24.04;45.48;99588.59;4994081;28;1185;-61
2021/11/08 12:51:54;;;;;;;;;;;;;;;24.16;45.69;99581.78;4995200;28;1961;-61
2021/11/08 12:54:21;;;;;;;;;;;;;;;24.11;45.73;99588.16;4995861;28;831;-61
2021/11/08 12:56:48;;;;;;;;;;;;;;;24.14;45.53;99586.38;4995328;28;870;-61
2021/11/08 12:59:16;;;;;;;;;;;;;;;24.09;45.24;99582.25;4995452;28;790;-61
2021/11/08 13:01:48;;;;;;;;;;;;;;;23.99;45.24;99576.00;4995457;28;862;-61
2021/11/08 13:04:17;;;;;;;;;;;;;;;24.00;45.70;99588.84;4995008;28;826;-61
2021/11/08 13:06:45;;;;;;;;;;;;;;;24.03;45.81;99582.19;4995040;28;886;-61
2021/11/08 13:09:14;;;;;;;;;;;;;;;24.07;45.65;99581.97;4994927;28;813;-61
2021/11/08 13:11:45;;;;;;;;;;;;;;;24.08;45.87;99583.50;4994795;28;1954;-61
2021/11/08 13:14:34;;;;;;;;;;;;;;;24.01;45.72;99576.28;4994851;28;826;-61
2021/11/08 13:17:09;;;;;;;;;;;;;;;23.92;45.70;99582.09;4994706;28;1282;-61
2021/11/08 13:19:48;;;;;;;;;;;;;;;23.92;45.84;99586.97;4994660;28;1276;-61
2021/11/08 13:22:19;;;;;;;;;;;;;;;23.97;45.50;99589.06;4994719;28;946;-61
2021/11/08 13:24:55;;;;;;;;;;;;;;;23.90;45.52;99595.16;4994721;28;958;-61
2021/11/08 13:27:22;;;;;;;;;;;;;;;24.04;45.67;99588.59;4994603;28;815;-61
2021/11/08 13:29:53;;;;;;;;;;;;;;;24.09;45.17;99585.06;4994493;28;1970;-61
2021/11/08 13:32:19;;;;;;;;;;;;;;;23.91;45.40;99591.06;4994620;28;842;-61
2021/11/08 13:34:46;;;;;;;;;;;;;;;23.97;45.83;99586.25;4994464;28;835;-61
2021/11/08 13:37:12;;;;;;;;;;;;;;;24.13;45.69;99588.44;4994451;28;802;-61
2021/11/08 13:39:39;;;;;;;;;;;;;;;24.05;44.93;99585.28;4994263;28;917;-61
2021/11/08 13:42:05;;;;;;;;;;;;;;;23.79;45.20;99576.06;4994317;28;803;-61
2021/11/08 13:44:32;;;;;;;;;;;;;;;23.38;45.34;99585.41;4994268;28;886;-61
2021/11/08 13:46:59;;;;;;;;;;;;;;;23.05;46.04;99577.38;4994272;28;807;-61
2021/11/08 13:49:25;;;;;;;;;;;;;;;22.98;46.70;99580.56;4994181;28;862;-61
2021/11/08 13:51:57;;;;;;;;;;;;;;;22.95;46.99;99576.69;4994170;28;1890;-61
2021/11/08 13:54:30;;;;;;;;;;;;;;;22.84;46.93;99573.75;4994105;28;811;-61
2021/11/08 13:57:01;;;;;;;;;;;;;;;22.67;47.20;99569.94;4993836;28;846;-61
2021/11/08 13:59:30;;;;;;;;;;;;;;;22.30;47.54;99567.66;4994118;28;859;-61
2021/11/08 14:02:00;;;;;;;;;;;;;;;22.00;48.36;99571.25;4994138;28;815;-61
2021/11/08 14:04:31;;;;;;;;;;;;;;;21.70;48.99;99573.31;4993950;28;846;-61
2021/11/08 14:06:58;;;;;;;;;;;;;;;21.40;49.96;99573.28;4992568;28;1355;-61
2021/11/08 14:09:24;;;;;;;;;;;;;;;21.20;50.64;99570.31;4993781;28;811;-61
2021/11/08 14:11:55;;;;;;;;;;;;;;;21.03;50.88;99566.41;4992393;28;1886;-61
2021/11/08 14:14:23;;;;;;;;;;;;;;;20.86;51.49;99569.66;4993756;28;807;-63
2021/11/08 14:16:51;;;;;;;;;;;;;;;20.74;51.95;99568.66;4992362;28;1299;-63
2021/11/08 14:19:20;;;;;;;;;;;;;;;20.56;52.29;99563.88;4993598;28;1414;-63
2021/11/08 14:21:47;;;;;;;;;;;;;;;20.36;53.00;99567.28;4993625;28;803;-63
2021/11/08 14:24:15;;;;;;;;;;;;;;;20.17;53.63;99565.81;4993502;28;803;-63
2021/11/08 14:26:44;;;;;;;;;;;;;;;20.01;53.92;99574.59;4993433;28;1306;-63
2021/11/08 14:29:12;;;;;;;;;;;;;;;19.85;54.68;99572.97;4993691;28;839;-63
2021/11/08 14:31:40;;;;;;;;;;;;;;;19.67;55.33;99568.94;4993655;28;1914;-63
2021/11/08 14:34:09;;;;;;;;;;;;;;;19.53;56.06;99575.94;4993571;28;870;-63
2021/11/08 14:36:44;;;;;;;;;;;;;;;19.41;56.32;99576.13;4992053;28;1192;-63
2021/11/08 14:39:13;;;;;;;;;;;;;;;19.24;56.92;99584.84;4993218;28;842;-63
2021/11/08 14:42:01;;;;;;;;;;;;;;;19.12;56.99;99580.97;4993153;28;835;-63
2021/11/08 14:44:37;;;;;;;;;;;;;;;19.00;57.45;99583.91;4993103;28;1147;-63
2021/11/08 14:47:14;;;;;;;;;;;;;;;18.89;57.67;99587.19;4991891;28;1280;-63
2021/11/08 14:49:51;;;;;;;;;;;;;;;18.74;58.01;99586.97;4993000;28;1894;-63
2021/11/08 14:52:18;;;;;;;;;;;;;;;18.47;59.13;99584.88;4992012;28;843;-63
2021/11/08 14:54:50;;;;;;;;;;;;;;;18.08;60.58;99590.03;4993452;28;784;-63
2021/11/08 14:57:18;;;;;;;;;;;;;;;17.65;62.11;99589.63;4993076;28;858;-63